createdAt,value
2024-01-11T05:34:45.852Z,101417.78
2024-01-11T05:37:48.686Z,101417.78
2024-01-11T05:40:51.296Z,101418.59
2024-01-11T05:43:53.935Z,101411.22
2024-01-11T05:46:56.585Z,101404.84
2024-01-11T05:49:59.226Z,101412.44
2024-01-11T05:53:01.739Z,101409.22
2024-01-11T05:56:09.395Z,101410.56
2024-01-11T05:59:12.049Z,101408.12
2024-01-11T06:02:15.032Z,101417.50
2024-01-11T06:05:18.101Z,101411.00
2024-01-11T06:08:21.058Z,101413.53
2024-01-11T06:11:23.907Z,101412.78
2024-01-11T06:14:26.477Z,101408.03
2024-01-11T06:17:29.740Z,101409.38
2024-01-11T06:20:32.470Z,101408.25
2024-01-11T06:23:35.034Z,101407.28
2024-01-11T06:26:38.958Z,101403.06
2024-01-11T06:29:41.616Z,101399.19
2024-01-11T06:32:44.382Z,101402.31
2024-01-11T06:35:47.235Z,101401.41
2024-01-11T06:38:49.785Z,101393.72
2024-01-11T06:41:52.349Z,101396.00
2024-01-11T06:44:54.962Z,101386.97
2024-01-11T06:47:58.584Z,101388.28
2024-01-11T06:51:02.427Z,101395.44
2024-01-11T06:54:05.455Z,101391.81
2024-01-11T06:57:07.986Z,101387.94
2024-01-11T07:00:11.437Z,101388.84
2024-01-11T07:03:14.123Z,101380.19
2024-01-11T07:06:17.084Z,101382.41
2024-01-11T07:09:19.719Z,101384.59
2024-01-11T07:12:22.351Z,101385.50
2024-01-11T07:15:25.166Z,101395.97
2024-01-11T07:18:28.012Z,101392.00
2024-01-11T07:21:31.197Z,101389.41
2024-01-11T07:24:38.788Z,101385.13
2024-01-11T07:27:42.175Z,101381.78
2024-01-11T07:30:44.844Z,101379.16
2024-01-11T07:33:47.589Z,101382.78
2024-01-11T07:36:50.280Z,101385.94
2024-01-11T07:39:52.821Z,101380.44
2024-01-11T07:42:55.517Z,101380.69
2024-01-11T07:45:58.200Z,101373.91
2024-01-11T07:49:00.863Z,101374.69
2024-01-11T07:52:04.028Z,101379.75
2024-01-11T07:55:09.683Z,101378.38
2024-01-11T07:58:13.630Z,101386.03
2024-01-11T08:01:17.327Z,101381.84
2024-01-11T08:04:19.871Z,101368.59
2024-01-11T08:07:23.247Z,101375.94
2024-01-11T08:10:25.775Z,101362.53
2024-01-11T08:13:28.320Z,101362.56
2024-01-11T08:16:30.827Z,101357.62
2024-01-11T08:19:33.993Z,101348.87
2024-01-11T08:22:38.515Z,101339.59
2024-01-11T08:25:41.131Z,101345.59
2024-01-11T08:28:43.763Z,101336.88
2024-01-11T08:31:46.674Z,101319.06
2024-01-11T08:34:49.331Z,101327.25
2024-01-11T08:37:52.373Z,101331.56
2024-01-11T08:40:54.933Z,101330.50
2024-01-11T08:43:57.438Z,101321.00
2024-01-11T08:47:00.620Z,101325.00
2024-01-11T08:50:10.231Z,101313.47
2024-01-11T08:53:15.060Z,101313.81
2024-01-11T08:56:18.533Z,101308.41
2024-01-11T08:59:26.197Z,101313.75
2024-01-11T09:02:30.125Z,101315.03
2024-01-11T09:05:33.276Z,101322.19
2024-01-11T09:08:36.449Z,101325.63
2024-01-11T09:11:39.499Z,101310.88
2024-01-11T09:14:42.486Z,101308.91
2024-01-11T09:17:46.299Z,101301.78
2024-01-11T09:20:50.260Z,101299.16
2024-01-11T09:23:53.543Z,101296.69
2024-01-11T09:26:56.149Z,101290.06
2024-01-11T09:29:58.694Z,101285.63
2024-01-11T09:33:01.514Z,101287.19
2024-01-11T09:36:04.801Z,101288.75
2024-01-11T09:39:08.808Z,101274.19
2024-01-11T09:42:11.871Z,101266.16
2024-01-11T09:45:17.206Z,101257.47
2024-01-11T09:48:21.665Z,101240.41
2024-01-11T09:51:24.495Z,101214.28
2024-01-11T09:54:27.169Z,101210.97
2024-01-11T09:57:35.905Z,101208.75
2024-01-11T10:00:38.536Z,101197.16
2024-01-11T10:03:43.068Z,101190.25
2024-01-11T10:06:46.009Z,101181.66
2024-01-11T10:09:49.964Z,101169.06
2024-01-11T10:12:52.581Z,101160.91
2024-01-11T10:15:57.908Z,101157.31
2024-01-11T10:19:00.476Z,101161.78
2024-01-11T10:22:03.503Z,101158.97
2024-01-11T10:25:13.396Z,101150.59
2024-01-11T10:28:16.907Z,101146.69
2024-01-11T10:31:19.970Z,101130.00
2024-01-11T10:34:22.600Z,101131.69
2024-01-11T10:37:25.323Z,101121.25
2024-01-11T10:40:28.323Z,101124.91
2024-01-11T10:43:30.958Z,101125.97
2024-01-11T10:46:33.777Z,101125.13
2024-01-11T10:49:37.059Z,101105.59
2024-01-11T10:52:43.959Z,101104.94
2024-01-11T10:55:46.807Z,101097.53
2024-01-11T10:58:49.305Z,101092.75
2024-01-11T11:01:59.359Z,101093.50
2024-01-11T11:05:05.299Z,101092.69
2024-01-11T11:08:08.210Z,101077.97
2024-01-11T11:11:10.942Z,101072.72
2024-01-11T11:14:15.987Z,101066.34
2024-01-11T11:17:18.541Z,101057.91
2024-01-11T11:20:21.546Z,101053.81
2024-01-11T11:23:24.640Z,101053.50
2024-01-11T11:26:27.478Z,101050.25
2024-01-11T11:29:29.964Z,101049.50
2024-01-11T11:32:39.648Z,101060.06
2024-01-11T11:35:44.052Z,101067.87
2024-01-11T11:38:47.068Z,101059.94
2024-01-11T11:41:51.278Z,101036.09
2024-01-11T11:44:53.894Z,101034.53
2024-01-11T11:47:56.506Z,101029.63
2024-01-11T11:51:32.027Z,101017.41
2024-01-11T11:54:34.869Z,100998.97
2024-01-11T11:57:37.831Z,101010.63
2024-01-11T12:00:40.401Z,101009.19
2024-01-11T12:03:43.665Z,101009.84
2024-01-11T12:06:47.327Z,101017.06
2024-01-11T12:09:50.792Z,101012.00
2024-01-11T12:12:56.542Z,100998.12
2024-01-11T12:15:59.970Z,100987.97
2024-01-11T12:19:02.546Z,100980.28
2024-01-11T12:22:07.619Z,100984.56
2024-01-11T12:25:12.254Z,100982.69
2024-01-11T12:28:15.892Z,100981.72
2024-01-11T12:31:18.711Z,100973.41
2024-01-11T12:34:21.352Z,100973.59
2024-01-11T12:37:23.976Z,100967.09
2024-01-11T12:40:28.414Z,100958.34
2024-01-11T12:43:31.156Z,100950.13
2024-01-11T12:46:34.082Z,100962.06
2024-01-11T12:49:36.594Z,100951.97
2024-01-11T12:52:44.833Z,100959.22
2024-01-11T12:55:54.916Z,100970.84
2024-01-11T12:59:10.848Z,100945.72
2024-01-11T13:02:16.862Z,100951.66
2024-01-11T13:05:20.152Z,100936.97
2024-01-11T13:08:22.953Z,100940.81
2024-01-11T13:11:29.666Z,100931.34
2024-01-11T13:14:32.852Z,100922.88
2024-01-11T13:17:36.780Z,100914.25
2024-01-11T13:20:39.744Z,100913.78
2024-01-11T13:23:42.603Z,100904.87
2024-01-11T13:26:45.251Z,100906.16
2024-01-11T13:29:47.958Z,100886.53
2024-01-11T13:32:52.678Z,100880.16
2024-01-11T13:35:55.458Z,100891.41
2024-01-11T13:38:58.098Z,100875.25
2024-01-11T13:42:00.832Z,100878.91
2024-01-11T13:45:04.440Z,100877.06
2024-01-11T13:48:07.567Z,100881.41
2024-01-11T13:51:14.256Z,100871.81
2024-01-11T13:54:16.937Z,100866.19
2024-01-11T13:57:19.468Z,100857.97
2024-01-11T14:00:22.146Z,100851.50
2024-01-11T14:03:25.158Z,100840.00
2024-01-11T14:06:28.362Z,100840.06
2024-01-11T14:09:31.024Z,100840.50
2024-01-11T14:12:33.986Z,100831.72
2024-01-11T14:15:36.612Z,100828.25
2024-01-11T14:18:39.679Z,100825.56
2024-01-11T14:21:42.386Z,100804.03
2024-01-11T14:24:45.847Z,100808.31
2024-01-11T14:27:48.946Z,100805.94
2024-01-11T14:30:51.816Z,100802.78
2024-01-11T14:33:54.620Z,100802.41
2024-01-11T14:37:00.218Z,100780.88
2024-01-11T14:40:02.776Z,100793.06
2024-01-11T14:43:05.522Z,100796.16
2024-01-11T14:46:11.681Z,100792.94
2024-01-11T14:49:14.322Z,100792.47
2024-01-11T14:52:18.293Z,100790.88
2024-01-11T14:55:21.151Z,100800.53
2024-01-11T14:58:23.625Z,100777.97
2024-01-11T15:01:26.244Z,100755.34
2024-01-11T15:04:28.875Z,100769.09
2024-01-11T15:07:31.350Z,100773.16
2024-01-11T15:10:33.933Z,100784.84
2024-01-11T15:13:36.488Z,100775.53
2024-01-11T15:16:39.162Z,100772.31
2024-01-11T15:19:44.097Z,100764.00
2024-01-11T15:22:47.032Z,100770.88
2024-01-11T15:25:49.512Z,100762.28
2024-01-11T15:28:52.152Z,100765.06
2024-01-11T15:31:54.926Z,100763.38
2024-01-11T15:34:57.539Z,100779.09
2024-01-11T15:38:00.143Z,100776.28
2024-01-11T15:41:02.679Z,100783.13
2024-01-11T15:44:05.201Z,100773.44
2024-01-11T15:47:08.174Z,100772.59
2024-01-11T15:50:11.891Z,100762.03
2024-01-11T15:53:14.571Z,100758.34
